sensor_id;sensor_type;location;lat;lon;timestamp;pressure;altitude;pressure_sealevel;temperature;humidity
45793;BME280;31495;42.740;22.908;2023-11-21T00:00:17;92850.34;;;0.97;79.67
45793;BME280;31495;42.740;22.908;2023-11-21T00:01:17;92936.84;;;1.48;80.04
45793;BME280;31495;42.740;22.908;2023-11-21T00:02:16;92930.47;;;1.44;79.95
45793;BME280;31495;42.740;22.908;2023-11-21T00:03:16;92898.75;;;1.22;79.62
45793;BME280;31495;42.740;22.908;2023-11-21T00:04:15;92871.19;;;1.09;79.78
45793;BME280;31495;42.740;22.908;2023-11-21T00:05:14;92928.88;;;1.43;79.99
45793;BME280;31495;42.740;22.908;2023-11-21T00:06:14;92932.53;;;1.40;80.06
45793;BME280;31495;42.740;22.908;2023-11-21T00:07:14;92796.00;;;0.55;80.22
45793;BME280;31495;42.740;22.908;2023-11-21T00:08:14;92926.34;;;1.35;80.34
45793;BME280;31495;42.740;22.908;2023-11-21T00:09:14;92806.03;;;0.57;80.40
45793;BME280;31495;42.740;22.908;2023-11-21T00:10:15;92795.38;;;0.45;80.34
45793;BME280;31495;42.740;22.908;2023-11-21T00:11:15;92892.53;;;1.16;80.50
45793;BME280;31495;42.740;22.908;2023-11-21T00:12:14;92929.97;;;1.40;80.44
45793;BME280;31495;42.740;22.908;2023-11-21T00:13:14;92842.03;;;0.79;80.55
45793;BME280;31495;42.740;22.908;2023-11-21T00:14:14;92881.84;;;1.04;80.70
45793;BME280;31495;42.740;22.908;2023-11-21T00:15:14;92939.41;;;1.40;80.84
45793;BME280;31495;42.740;22.908;2023-11-21T00:16:14;92858.91;;;0.96;80.73
45793;BME280;31495;42.740;22.908;2023-11-21T00:17:13;92894.75;;;1.19;80.74
45793;BME280;31495;42.740;22.908;2023-11-21T00:18:13;92910.22;;;1.26;80.92
45793;BME280;31495;42.740;22.908;2023-11-21T00:19:13;92787.09;;;0.43;80.85
45793;BME280;31495;42.740;22.908;2023-11-21T00:20:12;92845.06;;;0.82;80.79
45793;BME280;31495;42.740;22.908;2023-11-21T00:21:13;92925.19;;;1.37;80.94
45793;BME280;31495;42.740;22.908;2023-11-21T00:22:12;92930.13;;;1.39;80.73
45793;BME280;31495;42.740;22.908;2023-11-21T00:23:12;92927.13;;;1.35;80.91
45793;BME280;31495;42.740;22.908;2023-11-21T00:24:12;92917.88;;;1.26;80.81
45793;BME280;31495;42.740;22.908;2023-11-21T00:25:12;92931.13;;;1.38;81.13
45793;BME280;31495;42.740;22.908;2023-11-21T00:26:14;92929.50;;;1.28;80.86
45793;BME280;31495;42.740;22.908;2023-11-21T00:27:14;92932.69;;;1.31;81.01
45793;BME280;31495;42.740;22.908;2023-11-21T00:28:14;92927.13;;;1.27;81.06
45793;BME280;31495;42.740;22.908;2023-11-21T00:29:14;92931.09;;;1.29;81.08
45793;BME280;31495;42.740;22.908;2023-11-21T00:30:14;92811.25;;;0.47;81.01
45793;BME280;31495;42.740;22.908;2023-11-21T00:31:13;92930.59;;;1.26;81.14
45793;BME280;31495;42.740;22.908;2023-11-21T00:32:13;92938.09;;;1.36;81.08
45793;BME280;31495;42.740;22.908;2023-11-21T00:33:12;92873.25;;;0.89;80.81
45793;BME280;31495;42.740;22.908;2023-11-21T00:34:12;92908.31;;;1.12;80.98
45793;BME280;31495;42.740;22.908;2023-11-21T00:35:12;92877.38;;;0.90;81.08
45793;BME280;31495;42.740;22.908;2023-11-21T00:36:11;92912.44;;;1.04;81.35
45793;BME280;31495;42.740;22.908;2023-11-21T00:37:10;92880.06;;;0.88;81.16
45793;BME280;31495;42.740;22.908;2023-11-21T00:38:10;92931.75;;;1.32;80.94
45793;BME280;31495;42.740;22.908;2023-11-21T00:39:10;92843.63;;;0.71;80.79
45793;BME280;31495;42.740;22.908;2023-11-21T00:40:11;92852.22;;;0.79;81.21
45793;BME280;31495;42.740;22.908;2023-11-21T00:41:11;92865.31;;;0.92;80.78
45793;BME280;31495;42.740;22.908;2023-11-21T00:42:10;92922.16;;;1.25;80.79
45793;BME280;31495;42.740;22.908;2023-11-21T00:43:10;92849.50;;;0.80;80.73
45793;BME280;31495;42.740;22.908;2023-11-21T00:44:10;92935.56;;;1.27;80.86
45793;BME280;31495;42.740;22.908;2023-11-21T00:45:10;92894.13;;;1.01;80.73
45793;BME280;31495;42.740;22.908;2023-11-21T00:46:10;92837.56;;;0.64;80.68
45793;BME280;31495;42.740;22.908;2023-11-21T00:47:09;92857.31;;;0.79;80.46
45793;BME280;31495;42.740;22.908;2023-11-21T00:48:09;92940.00;;;1.25;80.42
45793;BME280;31495;42.740;22.908;2023-11-21T00:49:08;92893.50;;;0.99;80.48
45793;BME280;31495;42.740;22.908;2023-11-21T00:50:08;92841.53;;;0.67;80.45
45793;BME280;31495;42.740;22.908;2023-11-21T00:51:09;92923.59;;;1.12;80.80
45793;BME280;31495;42.740;22.908;2023-11-21T00:52:08;92880.56;;;0.84;81.23
45793;BME280;31495;42.740;22.908;2023-11-21T00:53:08;92864.28;;;0.68;81.17
45793;BME280;31495;42.740;22.908;2023-11-21T00:54:07;92923.25;;;1.06;81.45
45793;BME280;31495;42.740;22.908;2023-11-21T00:55:07;92733.72;;;-0.08;81.16
45793;BME280;31495;42.740;22.908;2023-11-21T00:56:07;92894.72;;;0.86;81.54
45793;BME280;31495;42.740;22.908;2023-11-21T00:57:07;92832.94;;;0.51;81.47
45793;BME280;31495;42.740;22.908;2023-11-21T00:58:08;92875.31;;;0.77;81.35
45793;BME280;31495;42.740;22.908;2023-11-21T00:59:08;92933.28;;;1.08;81.44
45793;BME280;31495;42.740;22.908;2023-11-21T01:00:07;92929.47;;;1.04;81.37
45793;BME280;31495;42.740;22.908;2023-11-21T01:01:12;92929.81;;;1.09;81.21
45793;BME280;31495;42.740;22.908;2023-11-21T01:02:12;92915.44;;;1.00;81.16
45793;BME280;31495;42.740;22.908;2023-11-21T01:03:11;92881.81;;;0.71;81.35
45793;BME280;31495;42.740;22.908;2023-11-21T01:04:11;92920.06;;;0.96;81.33
45793;BME280;31495;42.740;22.908;2023-11-21T01:05:11;92870.66;;;0.56;81.39
45793;BME280;31495;42.740;22.908;2023-11-21T01:06:10;92908.75;;;0.90;81.30
45793;BME280;31495;42.740;22.908;2023-11-21T01:07:10;92928.66;;;0.95;81.26
45793;BME280;31495;42.740;22.908;2023-11-21T01:08:09;92937.13;;;1.04;80.92
45793;BME280;31495;42.740;22.908;2023-11-21T01:09:10;92934.56;;;1.04;80.95
45793;BME280;31495;42.740;22.908;2023-11-21T01:10:09;92918.47;;;0.95;80.58
45793;BME280;31495;42.740;22.908;2023-11-21T01:11:08;92938.22;;;1.01;80.24
45793;BME280;31495;42.740;22.908;2023-11-21T01:12:09;92795.13;;;0.06;80.56
45793;BME280;31495;42.740;22.908;2023-11-21T01:13:09;92767.72;;;-0.09;80.73
45793;BME280;31495;42.740;22.908;2023-11-21T01:14:09;92934.09;;;0.92;81.14
45793;BME280;31495;42.740;22.908;2023-11-21T01:15:10;92880.84;;;0.64;80.96
45793;BME280;31495;42.740;22.908;2023-11-21T01:16:11;92885.63;;;0.59;80.99
45793;BME280;31495;42.740;22.908;2023-11-21T01:17:10;92924.31;;;0.71;81.23
45793;BME280;31495;42.740;22.908;2023-11-21T01:18:10;92917.94;;;0.75;81.12
45793;BME280;31495;42.740;22.908;2023-11-21T01:19:09;92936.75;;;0.74;81.13
45793;BME280;31495;42.740;22.908;2023-11-21T01:20:09;92878.53;;;0.36;81.21
45793;BME280;31495;42.740;22.908;2023-11-21T01:21:12;92903.75;;;0.56;80.94
45793;BME280;31495;42.740;22.908;2023-11-21T01:22:11;92913.13;;;0.64;81.07
45793;BME280;31495;42.740;22.908;2023-11-21T01:23:11;92938.81;;;0.87;80.79
45793;BME280;31495;42.740;22.908;2023-11-21T01:24:11;92876.03;;;0.53;80.79
45793;BME280;31495;42.740;22.908;2023-11-21T01:25:10;92941.06;;;0.90;80.95
45793;BME280;31495;42.740;22.908;2023-11-21T01:26:10;92860.88;;;0.35;80.73
45793;BME280;31495;42.740;22.908;2023-11-21T01:27:09;92860.25;;;0.33;81.19
45793;BME280;31495;42.740;22.908;2023-11-21T01:28:09;92802.56;;;-0.01;81.06
45793;BME280;31495;42.740;22.908;2023-11-21T01:29:09;92797.47;;;-0.01;80.85
45793;BME280;31495;42.740;22.908;2023-11-21T01:30:10;92947.91;;;0.89;81.10
45793;BME280;31495;42.740;22.908;2023-11-21T01:31:10;92842.22;;;0.26;81.19
45793;BME280;31495;42.740;22.908;2023-11-21T01:32:10;92903.31;;;0.69;81.37
45793;BME280;31495;42.740;22.908;2023-11-21T01:33:09;92915.72;;;0.80;81.22
45793;BME280;31495;42.740;22.908;2023-11-21T01:34:10;92863.78;;;0.48;81.29
45793;BME280;31495;42.740;22.908;2023-11-21T01:35:10;92860.59;;;0.46;81.35
45793;BME280;31495;42.740;22.908;2023-11-21T01:36:10;92833.84;;;0.34;81.46
45793;BME280;31495;42.740;22.908;2023-11-21T01:37:10;92885.97;;;0.72;81.40
45793;BME280;31495;42.740;22.908;2023-11-21T01:38:11;92857.09;;;0.55;81.72
45793;BME280;31495;42.740;22.908;2023-11-21T01:39:10;92899.97;;;0.85;81.40
45793;BME280;31495;42.740;22.908;2023-11-21T01:40:13;92834.97;;;0.40;81.31
45793;BME280;31495;42.740;22.908;2023-11-21T01:41:13;92906.53;;;0.87;81.79
45793;BME280;31495;42.740;22.908;2023-11-21T01:42:13;92915.75;;;0.97;81.90
45793;BME280;31495;42.740;22.908;2023-11-21T01:43:12;92839.78;;;0.51;81.54
45793;BME280;31495;42.740;22.908;2023-11-21T01:44:11;92880.56;;;0.76;81.68
45793;BME280;31495;42.740;22.908;2023-11-21T01:45:12;92855.53;;;0.54;81.99
45793;BME280;31495;42.740;22.908;2023-11-21T01:46:12;92917.97;;;0.91;82.32
45793;BME280;31495;42.740;22.908;2023-11-21T01:47:13;92870.81;;;0.63;82.12
45793;BME280;31495;42.740;22.908;2023-11-21T01:48:13;92850.44;;;0.54;82.07
45793;BME280;31495;42.740;22.908;2023-11-21T01:49:14;92918.00;;;1.00;82.53
45793;BME280;31495;42.740;22.908;2023-11-21T01:50:16;92716.34;;;-0.29;82.44
45793;BME280;31495;42.740;22.908;2023-11-21T01:51:17;92859.34;;;0.67;82.44
45793;BME280;31495;42.740;22.908;2023-11-21T01:52:17;92897.91;;;0.97;82.58
45793;BME280;31495;42.740;22.908;2023-11-21T01:53:17;92838.81;;;0.60;82.82
45793;BME280;31495;42.740;22.908;2023-11-21T01:54:18;92847.75;;;0.72;82.58
45793;BME280;31495;42.740;22.908;2023-11-21T01:55:18;92911.03;;;1.18;82.45
45793;BME280;31495;42.740;22.908;2023-11-21T01:56:18;92915.00;;;1.21;81.86
45793;BME280;31495;42.740;22.908;2023-11-21T01:57:19;92873.09;;;0.99;81.84
45793;BME280;31495;42.740;22.908;2023-11-21T01:58:19;92849.66;;;0.79;81.72
45793;BME280;31495;42.740;22.908;2023-11-21T01:59:20;92897.00;;;1.06;81.76
45793;BME280;31495;42.740;22.908;2023-11-21T02:00:23;92853.19;;;0.86;81.38
45793;BME280;31495;42.740;22.908;2023-11-21T02:01:23;92837.59;;;0.72;81.21
45793;BME280;31495;42.740;22.908;2023-11-21T02:02:22;92911.66;;;1.20;81.60
45793;BME280;31495;42.740;22.908;2023-11-21T02:03:21;92844.09;;;0.75;81.65
45793;BME280;31495;42.740;22.908;2023-11-21T02:04:21;92825.63;;;0.65;81.79
45793;BME280;31495;42.740;22.908;2023-11-21T02:05:20;92894.59;;;1.13;82.03
45793;BME280;31495;42.740;22.908;2023-11-21T02:06:21;92890.28;;;1.13;82.03
45793;BME280;31495;42.740;22.908;2023-11-21T02:07:21;92907.81;;;1.24;81.99
45793;BME280;31495;42.740;22.908;2023-11-21T02:08:22;92893.34;;;1.17;81.71
45793;BME280;31495;42.740;22.908;2023-11-21T02:09:28;92881.53;;;1.07;81.66
45793;BME280;31495;42.740;22.908;2023-11-21T02:10:30;92819.44;;;0.67;81.48
45793;BME280;31495;42.740;22.908;2023-11-21T02:11:30;92836.13;;;0.78;81.17
45793;BME280;31495;42.740;22.908;2023-11-21T02:12:30;92892.69;;;1.15;81.07
45793;BME280;31495;42.740;22.908;2023-11-21T02:13:29;92878.84;;;1.09;81.06
45793;BME280;31495;42.740;22.908;2023-11-21T02:14:28;92853.50;;;0.91;81.13
45793;BME280;31495;42.740;22.908;2023-11-21T02:15:28;92905.59;;;1.21;80.95
45793;BME280;31495;42.740;22.908;2023-11-21T02:16:28;92870.56;;;1.07;80.75
45793;BME280;31495;42.740;22.908;2023-11-21T02:17:31;92809.56;;;0.72;80.97
45793;BME280;31495;42.740;22.908;2023-11-21T02:18:32;92832.66;;;0.79;80.93
45793;BME280;31495;42.740;22.908;2023-11-21T02:19:31;92860.53;;;0.97;81.16
45793;BME280;31495;42.740;22.908;2023-11-21T02:20:32;92839.81;;;0.84;81.03
45793;BME280;31495;42.740;22.908;2023-11-21T02:21:34;92838.53;;;0.88;80.72
45793;BME280;31495;42.740;22.908;2023-11-21T02:22:38;92892.84;;;1.13;80.69
45793;BME280;31495;42.740;22.908;2023-11-21T02:23:38;92868.81;;;1.07;80.76
45793;BME280;31495;42.740;22.908;2023-11-21T02:24:41;92842.03;;;0.79;80.55
45793;BME280;31495;42.740;22.908;2023-11-21T02:25:42;92861.63;;;1.03;80.40
45793;BME280;31495;42.740;22.908;2023-11-21T02:26:42;92846.97;;;0.88;80.25
45793;BME280;31495;42.740;22.908;2023-11-21T02:27:41;92880.28;;;1.03;80.51
45793;BME280;31495;42.740;22.908;2023-11-21T02:28:42;92879.47;;;0.95;80.69
45793;BME280;31495;42.740;22.908;2023-11-21T02:29:41;92820.69;;;0.55;80.48
45793;BME280;31495;42.740;22.908;2023-11-21T02:30:42;92896.84;;;1.07;80.59
45793;BME280;31495;42.740;22.908;2023-11-21T02:31:45;92844.25;;;0.73;80.44
45793;BME280;31495;42.740;22.908;2023-11-21T02:32:50;92887.56;;;0.98;80.38
45793;BME280;31495;42.740;22.908;2023-11-21T02:33:52;92888.06;;;0.94;80.36
45793;BME280;31495;42.740;22.908;2023-11-21T02:34:52;92899.84;;;1.03;80.47
45793;BME280;31495;42.740;22.908;2023-11-21T02:35:55;92879.78;;;0.91;80.35
45793;BME280;31495;42.740;22.908;2023-11-21T02:36:54;92870.72;;;0.89;80.28
45793;BME280;31495;42.740;22.908;2023-11-21T02:37:54;92881.22;;;0.94;80.22
45793;BME280;31495;42.740;22.908;2023-11-21T02:38:54;92899.84;;;1.11;80.05
45793;BME280;31495;42.740;22.908;2023-11-21T02:39:54;92813.34;;;0.52;79.74
45793;BME280;31495;42.740;22.908;2023-11-21T02:40:53;92897.78;;;1.06;79.93
45793;BME280;31495;42.740;22.908;2023-11-21T02:41:53;92887.72;;;0.97;80.08
45793;BME280;31495;42.740;22.908;2023-11-21T02:42:53;92827.69;;;0.61;79.92
45793;BME280;31495;42.740;22.908;2023-11-21T02:43:52;92877.69;;;0.95;79.87
45793;BME280;31495;42.740;22.908;2023-11-21T02:44:51;92892.19;;;1.03;79.77
45793;BME280;31495;42.740;22.908;2023-11-21T02:45:51;92824.53;;;0.59;79.60
45793;BME280;31495;42.740;22.908;2023-11-21T02:46:51;92823.06;;;0.57;79.84
45793;BME280;31495;42.740;22.908;2023-11-21T02:47:50;92877.38;;;0.90;79.95
45793;BME280;31495;42.740;22.908;2023-11-21T02:48:52;92832.31;;;0.58;80.01
45793;BME280;31495;42.740;22.908;2023-11-21T02:49:55;92880.91;;;0.97;79.88
45793;BME280;31495;42.740;22.908;2023-11-21T02:50:55;92882.00;;;1.03;79.60
45793;BME280;31495;42.740;22.908;2023-11-21T02:51:54;92876.75;;;1.04;79.50
45793;BME280;31495;42.740;22.908;2023-11-21T02:52:54;92895.22;;;1.15;79.63
45793;BME280;31495;42.740;22.908;2023-11-21T02:53:53;92892.84;;;1.13;79.58
45793;BME280;31495;42.740;22.908;2023-11-21T02:54:53;92798.06;;;0.52;79.76
45793;BME280;31495;42.740;22.908;2023-11-21T02:55:53;92889.03;;;1.01;80.10
45793;BME280;31495;42.740;22.908;2023-11-21T02:56:52;92783.91;;;0.33;80.29
45793;BME280;31495;42.740;22.908;2023-11-21T02:57:52;92869.56;;;0.83;80.48
45793;BME280;31495;42.740;22.908;2023-11-21T02:58:51;92873.41;;;0.87;80.38
45793;BME280;31495;42.740;22.908;2023-11-21T02:59:51;92754.09;;;0.09;80.16
45793;BME280;31495;42.740;22.908;2023-11-21T03:00:50;92765.09;;;0.17;80.21
45793;BME280;31495;42.740;22.908;2023-11-21T03:01:51;92871.34;;;0.83;80.39
45793;BME280;31495;42.740;22.908;2023-11-21T03:02:50;92826.56;;;0.55;80.08
45793;BME280;31495;42.740;22.908;2023-11-21T03:03:49;92868.94;;;0.73;80.24
45793;BME280;31495;42.740;22.908;2023-11-21T03:04:50;92819.03;;;0.38;80.58
45793;BME280;31495;42.740;22.908;2023-11-21T03:05:49;92897.75;;;0.90;80.57
45793;BME280;31495;42.740;22.908;2023-11-21T03:06:49;92881.38;;;0.84;80.29
45793;BME280;31495;42.740;22.908;2023-11-21T03:07:48;92905.25;;;1.00;80.36
45793;BME280;31495;42.740;22.908;2023-11-21T03:08:47;92891.84;;;0.81;80.63
45793;BME280;31495;42.740;22.908;2023-11-21T03:09:47;92909.41;;;0.93;80.96
45793;BME280;31495;42.740;22.908;2023-11-21T03:10:47;92861.25;;;0.57;80.87
45793;BME280;31495;42.740;22.908;2023-11-21T03:11:47;92832.91;;;0.43;81.05
45793;BME280;31495;42.740;22.908;2023-11-21T03:12:47;92826.38;;;0.49;80.27
45793;BME280;31495;42.740;22.908;2023-11-21T03:13:47;92884.53;;;0.86;80.06
45793;BME280;31495;42.740;22.908;2023-11-21T03:14:47;92910.50;;;0.98;80.24
45793;BME280;31495;42.740;22.908;2023-11-21T03:15:47;92889.63;;;0.86;80.29
45793;BME280;31495;42.740;22.908;2023-11-21T03:16:48;92819.72;;;0.48;80.10
45793;BME280;31495;42.740;22.908;2023-11-21T03:17:49;92878.66;;;0.78;80.18
45793;BME280;31495;42.740;22.908;2023-11-21T03:18:49;92779.88;;;0.14;80.28
45793;BME280;31495;42.740;22.908;2023-11-21T03:19:48;92869.41;;;0.77;80.33
45793;BME280;31495;42.740;22.908;2023-11-21T03:20:48;92880.25;;;0.87;80.11
45793;BME280;31495;42.740;22.908;2023-11-21T03:21:48;92766.81;;;0.09;79.97
45793;BME280;31495;42.740;22.908;2023-11-21T03:22:48;92838.34;;;0.57;80.25
45793;BME280;31495;42.740;22.908;2023-11-21T03:23:48;92901.59;;;0.94;80.51
45793;BME280;31495;42.740;22.908;2023-11-21T03:24:48;92894.25;;;0.83;80.45
45793;BME280;31495;42.740;22.908;2023-11-21T03:25:48;92818.56;;;0.42;80.71
45793;BME280;31495;42.740;22.908;2023-11-21T03:26:48;92859.66;;;0.64;80.90
45793;BME280;31495;42.740;22.908;2023-11-21T03:27:48;92822.41;;;0.46;81.00
45793;BME280;31495;42.740;22.908;2023-11-21T03:28:48;92755.06;;;0.08;81.11
45793;BME280;31495;42.740;22.908;2023-11-21T03:29:48;92849.03;;;0.77;81.15
45793;BME280;31495;42.740;22.908;2023-11-21T03:30:49;92793.72;;;0.28;81.25
45793;BME280;31495;42.740;22.908;2023-11-21T03:31:49;92808.84;;;0.38;81.56
45793;BME280;31495;42.740;22.908;2023-11-21T03:32:49;92739.28;;;-0.04;81.72
45793;BME280;31495;42.740;22.908;2023-11-21T03:33:49;92865.59;;;0.81;81.60
45793;BME280;31495;42.740;22.908;2023-11-21T03:34:58;92805.69;;;0.35;81.45
45793;BME280;31495;42.740;22.908;2023-11-21T03:35:58;92766.81;;;0.09;81.59
45793;BME280;31495;42.740;22.908;2023-11-21T03:36:57;92797.25;;;0.35;81.52
45793;BME280;31495;42.740;22.908;2023-11-21T03:37:57;92859.84;;;0.79;81.39
45793;BME280;31495;42.740;22.908;2023-11-21T03:38:57;92859.69;;;0.80;81.13
45793;BME280;31495;42.740;22.908;2023-11-21T03:39:57;92875.81;;;0.89;80.89
45793;BME280;31495;42.740;22.908;2023-11-21T03:40:56;92873.56;;;0.86;80.89
45793;BME280;31495;42.740;22.908;2023-11-21T03:41:56;92879.75;;;0.83;80.99
45793;BME280;31495;42.740;22.908;2023-11-21T03:42:55;92800.94;;;0.49;80.81
45793;BME280;31495;42.740;22.908;2023-11-21T03:43:55;92860.38;;;0.90;80.68
45793;BME280;31495;42.740;22.908;2023-11-21T03:44:54;92854.13;;;0.85;80.86
45793;BME280;31495;42.740;22.908;2023-11-21T03:45:54;92828.34;;;0.71;80.77
45793;BME280;31495;42.740;22.908;2023-11-21T03:46:53;92864.81;;;0.97;80.72
45793;BME280;31495;42.740;22.908;2023-11-21T03:47:53;92704.94;;;-0.08;80.83
45793;BME280;31495;42.740;22.908;2023-11-21T03:48:52;92838.38;;;0.81;80.85
45793;BME280;31495;42.740;22.908;2023-11-21T03:49:53;92866.09;;;1.01;80.99
45793;BME280;31495;42.740;22.908;2023-11-21T03:50:53;92795.50;;;0.44;80.93
45793;BME280;31495;42.740;22.908;2023-11-21T03:51:52;92738.22;;;0.07;81.15
45793;BME280;31495;42.740;22.908;2023-11-21T03:52:52;92794.09;;;0.41;81.29
45793;BME280;31495;42.740;22.908;2023-11-21T03:53:51;92807.63;;;0.42;81.34
45793;BME280;31495;42.740;22.908;2023-11-21T03:54:51;92784.19;;;0.22;81.59
45793;BME280;31495;42.740;22.908;2023-11-21T03:55:51;92798.19;;;0.34;81.81
45793;BME280;31495;42.740;22.908;2023-11-21T03:56:51;92790.56;;;0.34;81.75
45793;BME280;31495;42.740;22.908;2023-11-21T03:57:52;92868.63;;;0.93;81.53
45793;BME280;31495;42.740;22.908;2023-11-21T03:58:51;92844.75;;;0.77;81.37
45793;BME280;31495;42.740;22.908;2023-11-21T03:59:51;92862.25;;;0.80;81.54
45793;BME280;31495;42.740;22.908;2023-11-21T04:00:51;92800.75;;;0.42;81.70
45793;BME280;31495;42.740;22.908;2023-11-21T04:01:51;92801.22;;;0.38;82.01
45793;BME280;31495;42.740;22.908;2023-11-21T04:02:51;92866.72;;;0.86;81.84
45793;BME280;31495;42.740;22.908;2023-11-21T04:03:51;92842.66;;;0.72;81.55
45793;BME280;31495;42.740;22.908;2023-11-21T04:04:51;92797.44;;;0.50;81.49
45793;BME280;31495;42.740;22.908;2023-11-21T04:05:51;92781.22;;;0.43;81.26
45793;BME280;31495;42.740;22.908;2023-11-21T04:06:52;92874.22;;;0.96;81.19
45793;BME280;31495;42.740;22.908;2023-11-21T04:07:52;92800.00;;;0.50;80.65
45793;BME280;31495;42.740;22.908;2023-11-21T04:08:51;92726.91;;;0.01;80.69
45793;BME280;31495;42.740;22.908;2023-11-21T04:09:52;92874.84;;;0.90;80.67
45793;BME280;31495;42.740;22.908;2023-11-21T04:10:52;92795.19;;;0.39;80.71
45793;BME280;31495;42.740;22.908;2023-11-21T04:11:52;92856.66;;;0.68;80.42
45793;BME280;31495;42.740;22.908;2023-11-21T04:12:52;92822.25;;;0.48;80.57
45793;BME280;31495;42.740;22.908;2023-11-21T04:13:52;92776.25;;;0.16;80.79
45793;BME280;31495;42.740;22.908;2023-11-21T04:14:52;92788.78;;;0.18;80.93
45793;BME280;31495;42.740;22.908;2023-11-21T04:15:52;92795.31;;;0.21;80.66
45793;BME280;31495;42.740;22.908;2023-11-21T04:16:52;92740.88;;;-0.11;80.57
45793;BME280;31495;42.740;22.908;2023-11-21T04:17:53;92875.13;;;0.70;80.75
45793;BME280;31495;42.740;22.908;2023-11-21T04:18:52;92813.16;;;0.29;80.74
45793;BME280;31495;42.740;22.908;2023-11-21T04:19:52;92739.56;;;-0.15;80.84
45793;BME280;31495;42.740;22.908;2023-11-21T04:20:52;92848.19;;;0.51;80.82
45793;BME280;31495;42.740;22.908;2023-11-21T04:21:53;92854.88;;;0.61;80.83
45793;BME280;31495;42.740;22.908;2023-11-21T04:22:53;92801.50;;;0.26;80.89
45793;BME280;31495;42.740;22.908;2023-11-21T04:23:53;92858.09;;;0.63;81.08
45793;BME280;31495;42.740;22.908;2023-11-21T04:24:53;92783.03;;;0.08;81.12
45793;BME280;31495;42.740;22.908;2023-11-21T04:25:53;92822.22;;;0.23;81.46
45793;BME280;31495;42.740;22.908;2023-11-21T04:26:55;92875.44;;;0.67;81.43
45793;BME280;31495;42.740;22.908;2023-11-21T04:27:54;92875.78;;;0.72;81.20
45793;BME280;31495;42.740;22.908;2023-11-21T04:28:54;92880.56;;;0.76;81.25
45793;BME280;31495;42.740;22.908;2023-11-21T04:29:53;92876.72;;;0.71;81.42
45793;BME280;31495;42.740;22.908;2023-11-21T04:30:53;92832.59;;;0.46;81.27
45793;BME280;31495;42.740;22.908;2023-11-21T04:31:53;92835.16;;;0.54;80.84
45793;BME280;31495;42.740;22.908;2023-11-21T04:32:53;92869.09;;;0.80;80.89
45793;BME280;31495;42.740;22.908;2023-11-21T04:33:53;92812.06;;;0.31;80.95
45793;BME280;31495;42.740;22.908;2023-11-21T04:34:53;92874.81;;;0.73;81.05
45793;BME280;31495;42.740;22.908;2023-11-21T04:35:54;92785.13;;;0.12;81.67
45793;BME280;31495;42.740;22.908;2023-11-21T04:36:57;92795.78;;;0.24;81.74
45793;BME280;31495;42.740;22.908;2023-11-21T04:37:56;92874.16;;;0.71;81.87
45793;BME280;31495;42.740;22.908;2023-11-21T04:38:56;92870.69;;;0.72;81.81
45793;BME280;31495;42.740;22.908;2023-11-21T04:39:56;92870.03;;;0.70;81.94
45793;BME280;31495;42.740;22.908;2023-11-21T04:40:55;92854.94;;;0.69;81.93
45793;BME280;31495;42.740;22.908;2023-11-21T04:41:55;92735.81;;;-0.03;81.46
45793;BME280;31495;42.740;22.908;2023-11-21T04:42:54;92866.22;;;0.83;81.34
45793;BME280;31495;42.740;22.908;2023-11-21T04:43:54;92868.63;;;0.84;81.56
45793;BME280;31495;42.740;22.908;2023-11-21T04:44:54;92863.22;;;0.79;81.41
45793;BME280;31495;42.740;22.908;2023-11-21T04:45:55;92854.09;;;0.68;81.35
45793;BME280;31495;42.740;22.908;2023-11-21T04:46:55;92851.56;;;0.68;81.58
45793;BME280;31495;42.740;22.908;2023-11-21T04:47:55;92874.50;;;0.77;81.83
45793;BME280;31495;42.740;22.908;2023-11-21T04:48:55;92871.00;;;0.69;81.71
45793;BME280;31495;42.740;22.908;2023-11-21T04:49:55;92691.69;;;-0.37;82.03
45793;BME280;31495;42.740;22.908;2023-11-21T04:50:55;92798.34;;;0.32;82.07
45793;BME280;31495;42.740;22.908;2023-11-21T04:51:55;92845.22;;;0.72;81.98
45793;BME280;31495;42.740;22.908;2023-11-21T04:52:55;92801.72;;;0.41;82.23
45793;BME280;31495;42.740;22.908;2023-11-21T04:53:55;92861.94;;;0.83;82.37
45793;BME280;31495;42.740;22.908;2023-11-21T04:54:55;92842.00;;;0.70;82.13
45793;BME280;31495;42.740;22.908;2023-11-21T04:55:57;92861.00;;;0.84;82.09
45793;BME280;31495;42.740;22.908;2023-11-21T04:56:57;92791.03;;;0.38;82.09
45793;BME280;31495;42.740;22.908;2023-11-21T04:57:56;92865.44;;;0.82;82.03
45793;BME280;31495;42.740;22.908;2023-11-21T04:58:55;92864.94;;;0.87;82.30
45793;BME280;31495;42.740;22.908;2023-11-21T04:59:56;92829.94;;;0.64;82.25
45793;BME280;31495;42.740;22.908;2023-11-21T05:00:56;92858.44;;;0.93;81.85
45793;BME280;31495;42.740;22.908;2023-11-21T05:01:56;92875.50;;;0.92;82.14
45793;BME280;31495;42.740;22.908;2023-11-21T05:02:56;92836.13;;;0.70;82.15
45793;BME280;31495;42.740;22.908;2023-11-21T05:03:56;92783.75;;;0.34;82.16
45793;BME280;31495;42.740;22.908;2023-11-21T05:04:56;92784.53;;;0.35;82.31
45793;BME280;31495;42.740;22.908;2023-11-21T05:05:56;92859.53;;;0.90;82.24
45793;BME280;31495;42.740;22.908;2023-11-21T05:06:56;92783.41;;;0.46;81.89
45793;BME280;31495;42.740;22.908;2023-11-21T05:07:56;92782.78;;;0.44;82.01
45793;BME280;31495;42.740;22.908;2023-11-21T05:08:56;92812.72;;;0.58;82.05
45793;BME280;31495;42.740;22.908;2023-11-21T05:09:56;92833.25;;;0.65;82.17
45793;BME280;31495;42.740;22.908;2023-11-21T05:10:56;92860.03;;;0.77;82.42
45793;BME280;31495;42.740;22.908;2023-11-21T05:11:56;92857.31;;;0.79;82.55
45793;BME280;31495;42.740;22.908;2023-11-21T05:12:56;92814.63;;;0.48;81.95
45793;BME280;31495;42.740;22.908;2023-11-21T05:13:57;92838.03;;;0.60;82.50
45793;BME280;31495;42.740;22.908;2023-11-21T05:14:58;92881.03;;;0.79;82.27
45793;BME280;31495;42.740;22.908;2023-11-21T05:15:57;92814.94;;;0.45;82.22
45793;BME280;31495;42.740;22.908;2023-11-21T05:16:57;92815.09;;;0.51;81.98
45793;BME280;31495;42.740;22.908;2023-11-21T05:17:57;92745.03;;;0.06;81.57